createdAt,value
2023-11-26T00:00:15.010Z,97048.66
2023-11-26T00:02:42.257Z,97076.03
2023-11-26T00:05:09.550Z,97067.44
2023-11-26T00:07:36.668Z,97081.13
2023-11-26T00:10:03.921Z,97058.94
2023-11-26T00:12:30.995Z,97049.66
2023-11-26T00:14:58.090Z,97054.91
2023-11-26T00:17:25.659Z,97047.16
2023-11-26T00:19:53.057Z,97046.03
2023-11-26T00:22:20.240Z,97025.44
2023-11-26T00:24:47.228Z,97037.25
2023-11-26T00:27:15.034Z,97037.81
2023-11-26T00:29:42.200Z,97029.25
2023-11-26T00:32:09.557Z,97014.47
2023-11-26T00:34:37.596Z,97010.47
2023-11-26T00:37:05.272Z,97008.88
2023-11-26T00:39:32.411Z,97007.09
2023-11-26T00:41:59.510Z,96993.59
2023-11-26T00:44:27.280Z,96995.53
2023-11-26T00:46:55.032Z,96998.34
2023-11-26T00:49:22.703Z,97021.78
2023-11-26T00:51:49.766Z,97015.22
2023-11-26T00:54:16.764Z,97012.03
2023-11-26T00:56:43.795Z,97016.66
2023-11-26T00:59:11.158Z,97014.91
2023-11-26T01:01:38.812Z,97011.72
2023-11-26T01:04:06.163Z,96979.91
2023-11-26T01:06:33.366Z,96983.66
2023-11-26T01:09:00.496Z,96971.19
2023-11-26T01:11:27.602Z,96954.09
2023-11-26T01:13:54.733Z,96956.75
2023-11-26T01:16:21.746Z,96943.13
2023-11-26T01:18:49.303Z,96956.31
2023-11-26T01:21:16.402Z,96952.75
2023-11-26T01:23:43.444Z,96950.00
2023-11-26T01:26:11.965Z,96968.69
2023-11-26T01:28:39.010Z,96999.31
2023-11-26T01:31:06.430Z,96949.03
2023-11-26T01:33:33.882Z,96924.22
2023-11-26T01:36:00.929Z,96931.19
2023-11-26T01:38:29.245Z,96908.22
2023-11-26T01:40:56.332Z,96920.50
2023-11-26T01:43:26.063Z,96896.31
2023-11-26T01:46:08.712Z,96874.97
2023-11-26T01:48:37.264Z,96921.88
2023-11-26T01:51:11.413Z,96930.00
2023-11-26T01:53:41.953Z,96936.81
2023-11-26T01:56:10.059Z,96968.88
2023-11-26T01:58:37.462Z,96989.88
2023-11-26T02:01:04.768Z,96963.91
2023-11-26T02:03:32.004Z,97007.31
2023-11-26T02:05:59.468Z,96977.28
2023-11-26T02:08:28.260Z,96997.25
2023-11-26T02:10:56.218Z,97032.63
2023-11-26T02:13:23.228Z,97038.72
2023-11-26T02:15:50.257Z,97043.69
2023-11-26T02:18:20.586Z,96978.47
2023-11-26T02:20:48.207Z,96894.16
2023-11-26T02:23:15.666Z,96770.63
2023-11-26T02:25:42.756Z,96707.00
2023-11-26T02:28:10.523Z,96596.75
2023-11-26T02:30:37.545Z,96546.84
2023-11-26T02:33:04.627Z,96648.47
2023-11-26T02:35:31.766Z,96678.72
2023-11-26T02:37:58.826Z,96722.53
2023-11-26T02:40:26.185Z,96725.75
2023-11-26T02:42:53.280Z,96690.44
2023-11-26T02:45:20.376Z,96723.16
2023-11-26T02:47:47.542Z,96767.16
2023-11-26T02:50:14.859Z,96743.75
2023-11-26T02:52:42.080Z,96739.41
2023-11-26T02:55:09.834Z,96810.31
2023-11-26T02:57:36.859Z,96716.53
2023-11-26T03:00:16.688Z,96809.94
2023-11-26T03:02:50.041Z,96818.63
2023-11-26T03:05:20.911Z,96822.91
2023-11-26T03:07:52.351Z,96830.59
2023-11-26T03:10:38.376Z,96907.34
2023-11-26T03:13:08.805Z,96870.97
2023-11-26T03:15:38.295Z,96997.97
2023-11-26T03:18:06.701Z,96994.53
2023-11-26T03:20:33.755Z,96986.91
2023-11-26T03:23:00.966Z,96920.84
2023-11-26T03:25:27.960Z,96966.41
2023-11-26T03:27:55.772Z,96909.56
2023-11-26T03:30:22.913Z,96985.06
2023-11-26T03:32:50.039Z,97093.25
2023-11-26T03:35:18.005Z,97084.50
2023-11-26T03:37:45.116Z,97076.72
2023-11-26T03:40:13.537Z,97079.44
2023-11-26T03:42:40.833Z,97061.38
2023-11-26T03:45:08.496Z,97064.09
2023-11-26T03:47:35.834Z,97054.53
2023-11-26T03:50:08.048Z,97046.06
2023-11-26T03:52:35.280Z,97059.97
2023-11-26T03:55:02.542Z,97067.63
2023-11-26T03:57:30.012Z,97151.44
2023-11-26T03:59:57.022Z,97139.19
2023-11-26T04:02:25.297Z,97185.91
2023-11-26T04:04:53.899Z,97204.94
2023-11-26T04:07:21.724Z,97130.81
2023-11-26T04:09:49.712Z,97220.50
2023-11-26T04:12:16.757Z,97178.56
2023-11-26T04:15:01.871Z,97234.03
2023-11-26T04:17:30.275Z,97247.00
2023-11-26T04:19:57.451Z,97256.63
2023-11-26T04:22:25.417Z,97309.31
2023-11-26T04:24:52.963Z,97244.66
2023-11-26T04:27:22.395Z,97308.63
2023-11-26T04:29:49.662Z,97280.97
2023-11-26T04:32:18.171Z,97286.13
2023-11-26T04:34:45.524Z,97308.69
2023-11-26T04:37:19.205Z,97306.22
2023-11-26T04:39:47.856Z,97308.78
2023-11-26T04:42:14.882Z,97351.06
2023-11-26T04:44:42.320Z,97360.63
2023-11-26T04:47:10.441Z,97353.75
2023-11-26T04:49:37.626Z,97362.44
2023-11-26T04:52:04.883Z,97328.91
2023-11-26T04:54:32.531Z,97369.47
2023-11-26T04:56:59.637Z,97383.28
2023-11-26T04:59:27.245Z,97383.28
2023-11-26T05:01:57.797Z,97384.91
2023-11-26T05:04:26.126Z,97411.78
2023-11-26T05:06:53.618Z,97393.63
2023-11-26T05:09:22.139Z,97395.34
2023-11-26T05:11:49.200Z,97418.56
2023-11-26T05:14:16.458Z,97449.59
2023-11-26T05:16:43.735Z,97465.13
2023-11-26T05:19:12.752Z,97469.50
2023-11-26T05:21:40.338Z,97506.50
2023-11-26T05:24:08.338Z,97524.59
2023-11-26T05:26:35.849Z,97561.78
2023-11-26T05:29:04.543Z,97572.13
2023-11-26T05:31:31.830Z,97576.22
2023-11-26T05:33:59.110Z,97589.19
2023-11-26T05:36:26.757Z,97620.28
2023-11-26T05:38:54.270Z,97615.97
2023-11-26T05:41:21.384Z,97645.28
2023-11-26T05:43:48.553Z,97655.50
2023-11-26T05:46:15.719Z,97630.47
2023-11-26T05:48:43.790Z,97664.16
2023-11-26T05:51:11.043Z,97688.25
2023-11-26T05:53:38.188Z,97652.97
2023-11-26T05:56:08.416Z,97676.19
2023-11-26T05:58:35.548Z,97669.31
2023-11-26T06:01:02.735Z,97685.75
2023-11-26T06:03:29.892Z,97704.72
2023-11-26T06:05:56.997Z,97678.06
2023-11-26T06:08:24.038Z,97719.41
2023-11-26T06:10:51.055Z,97722.84
2023-11-26T06:13:18.604Z,97722.78
2023-11-26T06:15:45.681Z,97727.94
2023-11-26T06:18:13.411Z,97752.97
2023-11-26T06:20:40.561Z,97729.66
2023-11-26T06:23:07.691Z,97750.34
2023-11-26T06:25:34.854Z,97745.19
2023-11-26T06:28:01.938Z,97746.97
2023-11-26T06:30:29.049Z,97737.50
2023-11-26T06:32:56.366Z,97703.81
2023-11-26T06:35:23.444Z,97719.34
2023-11-26T06:37:50.743Z,97712.41
2023-11-26T06:40:17.942Z,97728.88
2023-11-26T06:42:45.039Z,97735.63
2023-11-26T06:45:12.821Z,97765.84
2023-11-26T06:47:40.677Z,97768.38
2023-11-26T06:50:08.686Z,97728.63
2023-11-26T06:52:36.759Z,97800.22
2023-11-26T06:55:04.027Z,97798.44
2023-11-26T06:57:31.312Z,97806.19
2023-11-26T06:59:58.546Z,97825.22
2023-11-26T07:02:27.038Z,97811.34
2023-11-26T07:04:54.311Z,97784.63
2023-11-26T07:07:21.946Z,97801.94
2023-11-26T07:09:49.623Z,97807.03
2023-11-26T07:12:16.792Z,97836.38
2023-11-26T07:14:45.752Z,97812.22
2023-11-26T07:17:14.073Z,97839.84
2023-11-26T07:19:42.944Z,97861.44
2023-11-26T07:22:10.215Z,97814.03
2023-11-26T07:24:37.422Z,97883.03
2023-11-26T07:27:04.699Z,97902.88
2023-11-26T07:29:35.401Z,97914.13
2023-11-26T07:32:02.586Z,97921.91
2023-11-26T07:34:29.627Z,97902.13
2023-11-26T07:36:56.634Z,97965.03
2023-11-26T07:41:47.821Z,97993.41
2023-11-26T07:44:15.465Z,98034.06
2023-11-26T07:46:42.604Z,98034.06
2023-11-26T07:49:42.061Z,98078.91
2023-11-26T07:52:09.493Z,98100.50
2023-11-26T07:54:36.640Z,98101.41
2023-11-26T07:57:04.505Z,98109.19
2023-11-26T07:59:31.549Z,98129.00
2023-11-26T08:01:59.642Z,98142.84
2023-11-26T08:04:28.431Z,98143.75
2023-11-26T08:06:55.622Z,98154.94
2023-11-26T08:09:22.670Z,98159.28
2023-11-26T08:11:49.788Z,98185.19
2023-11-26T08:14:17.369Z,98181.69
2023-11-26T08:16:44.752Z,98195.50
2023-11-26T08:19:17.883Z,98198.97
2023-11-26T08:21:46.129Z,98216.19
2023-11-26T08:24:19.733Z,98235.19
2023-11-26T08:26:48.159Z,98206.72
2023-11-26T08:29:17.943Z,98190.41
2023-11-26T08:31:45.909Z,98217.97
2023-11-26T08:34:17.466Z,98248.09
2023-11-26T08:36:45.211Z,98257.59
2023-11-26T08:39:21.066Z,98267.94
2023-11-26T08:41:48.397Z,98280.84
2023-11-26T08:44:15.793Z,98270.50
2023-11-26T08:46:43.225Z,98289.47
2023-11-26T08:49:11.494Z,98275.69
2023-11-26T08:51:39.244Z,98298.97
2023-11-26T08:54:06.515Z,98299.81
2023-11-26T08:56:33.573Z,98312.72
2023-11-26T08:59:00.541Z,98336.88
2023-11-26T09:01:27.937Z,98343.75
2023-11-26T09:03:55.083Z,98312.69
2023-11-26T09:06:22.205Z,98337.72
2023-11-26T09:08:51.803Z,98343.72
2023-11-26T09:11:19.938Z,98305.78
2023-11-26T09:13:52.724Z,98358.38
2023-11-26T09:16:21.288Z,98339.34
2023-11-26T09:18:48.804Z,98364.38
2023-11-26T09:21:16.323Z,98346.22
2023-11-26T09:23:45.318Z,98366.91
2023-11-26T09:26:13.680Z,98407.53
2023-11-26T09:28:40.732Z,98404.06
2023-11-26T09:31:10.267Z,98411.84
2023-11-26T09:33:38.213Z,98426.53
2023-11-26T09:36:06.030Z,98424.78
2023-11-26T09:38:33.158Z,98425.66
2023-11-26T09:41:00.305Z,98457.56
2023-11-26T09:43:32.602Z,98413.53
2023-11-26T09:46:00.116Z,98474.84
2023-11-26T09:48:27.569Z,98511.09
2023-11-26T09:50:58.115Z,98504.19
2023-11-26T09:53:25.613Z,98529.25
2023-11-26T09:55:53.442Z,98550.81
2023-11-26T09:58:20.440Z,98558.59
2023-11-26T10:00:47.540Z,98560.31
2023-11-26T10:03:14.791Z,98557.72
2023-11-26T10:05:42.544Z,98564.63
2023-11-26T10:08:33.450Z,98592.25
2023-11-26T10:11:01.326Z,98592.28
2023-11-26T10:13:41.565Z,98609.53
2023-11-26T10:16:10.020Z,98615.59
2023-11-26T10:18:44.342Z,98604.34
2023-11-26T10:21:12.353Z,98605.19
2023-11-26T10:23:40.303Z,98616.44
2023-11-26T10:26:20.599Z,98623.31
2023-11-26T10:29:05.230Z,98634.53
2023-11-26T10:31:32.389Z,98633.66
2023-11-26T10:34:16.214Z,98651.81
2023-11-26T10:36:43.822Z,98669.97
2023-11-26T10:39:13.527Z,98684.66
2023-11-26T10:41:41.013Z,98682.09
2023-11-26T10:44:09.636Z,98682.06
2023-11-26T10:46:37.407Z,98665.63
2023-11-26T10:49:14.556Z,98668.19
2023-11-26T10:51:48.114Z,98650.91
2023-11-26T10:54:27.230Z,98680.31
2023-11-26T10:57:01.517Z,98687.22
2023-11-26T10:59:34.777Z,98699.28
2023-11-26T11:02:03.270Z,98713.13
2023-11-26T11:04:34.448Z,98720.03
2023-11-26T11:07:02.565Z,98727.81
2023-11-26T11:09:49.245Z,98736.44
2023-11-26T11:12:19.629Z,98736.44
2023-11-26T11:14:47.466Z,98743.28
2023-11-26T11:17:31.573Z,98752.78
2023-11-26T11:19:58.899Z,98752.88
2023-11-26T11:22:37.433Z,98763.22
2023-11-26T11:25:09.564Z,98766.69
2023-11-26T11:27:58.972Z,98769.28
2023-11-26T11:30:44.424Z,98776.22
2023-11-26T11:33:13.040Z,98791.78
2023-11-26T11:35:47.136Z,98790.88
2023-11-26T11:38:18.516Z,98804.69
2023-11-26T11:41:10.333Z,98808.19
2023-11-26T11:43:38.452Z,98814.25
2023-11-26T11:46:29.784Z,98819.47
2023-11-26T11:48:59.421Z,98826.41
2023-11-26T11:51:38.057Z,98832.44
2023-11-26T11:54:11.231Z,98842.81
2023-11-26T11:56:39.013Z,98834.22
2023-11-26T11:59:06.544Z,98843.72
2023-11-26T12:01:36.023Z,98857.53
2023-11-26T12:04:04.163Z,98861.84
2023-11-26T12:06:32.789Z,98867.06
2023-11-26T12:09:14.342Z,98869.63
2023-11-26T12:11:45.693Z,98887.00
2023-11-26T12:14:12.803Z,98892.22
2023-11-26T12:16:39.901Z,98896.53
2023-11-26T12:19:08.360Z,98906.91
2023-11-26T12:21:35.586Z,98906.91
2023-11-26T12:24:02.758Z,98924.22
2023-11-26T12:26:36.152Z,98920.69
2023-11-26T12:29:03.442Z,98926.78
2023-11-26T12:31:32.826Z,98939.72
2023-11-26T12:34:00.045Z,98938.88
2023-11-26T12:36:27.620Z,98944.06
2023-11-26T12:38:54.849Z,98955.31
2023-11-26T12:41:22.086Z,98953.53
2023-11-26T12:43:49.358Z,98967.44
2023-11-26T12:46:18.447Z,98967.38
2023-11-26T12:48:45.546Z,98976.06
2023-11-26T12:51:17.202Z,98973.50
2023-11-26T12:53:44.993Z,98988.16
2023-11-26T12:56:12.113Z,98989.88
2023-11-26T12:58:39.192Z,99002.03
2023-11-26T13:01:07.537Z,99004.63
2023-11-26T13:03:34.630Z,99001.16
2023-11-26T13:06:10.022Z,99001.13
2023-11-26T13:08:36.931Z,99033.13
2023-11-26T13:11:05.653Z,99037.38
2023-11-26T13:13:33.642Z,99041.88
2023-11-26T13:16:03.032Z,99044.44
2023-11-26T13:18:31.273Z,99050.50
2023-11-26T13:21:05.530Z,99064.31
2023-11-26T13:23:33.250Z,99071.22
2023-11-26T13:26:01.919Z,99070.28
2023-11-26T13:28:31.877Z,99064.22
2023-11-26T13:31:02.254Z,99066.78
2023-11-26T13:33:29.558Z,99075.47
2023-11-26T13:36:01.174Z,99082.38
2023-11-26T13:38:28.433Z,99084.13
2023-11-26T13:40:55.545Z,99085.69
2023-11-26T13:43:24.356Z,99107.34
2023-11-26T13:45:51.884Z,99094.31
2023-11-26T13:48:24.254Z,99112.47
2023-11-26T13:50:55.434Z,99099.44
2023-11-26T13:53:24.873Z,99133.28
2023-11-26T13:55:52.631Z,99122.84
2023-11-26T13:58:19.894Z,99139.28
2023-11-26T14:00:47.682Z,99128.94
2023-11-26T14:03:16.284Z,99150.59
2023-11-26T14:05:43.651Z,99147.97
2023-11-26T14:08:11.074Z,99154.06
2023-11-26T14:10:39.788Z,99181.72
2023-11-26T14:13:09.297Z,99169.47
2023-11-26T14:15:36.628Z,99178.16
2023-11-26T14:18:06.656Z,99186.09
2023-11-26T14:20:39.003Z,99186.13
2023-11-26T14:23:08.536Z,99189.69
2023-11-26T14:25:36.128Z,99203.44
2023-11-26T14:28:03.361Z,99210.34
2023-11-26T14:30:32.486Z,99216.31
2023-11-26T14:32:59.797Z,99228.47
2023-11-26T14:35:26.912Z,99228.66
2023-11-26T14:37:55.315Z,99231.13
2023-11-26T14:40:23.032Z,99243.97
2023-11-26T14:42:50.330Z,99237.94
2023-11-26T14:45:17.604Z,99233.75
2023-11-26T14:47:46.182Z,99244.03
2023-11-26T14:50:14.819Z,99242.25
2023-11-26T14:52:42.169Z,99250.84
2023-11-26T14:55:14.639Z,99241.38
2023-11-26T14:57:42.795Z,99257.88
2023-11-26T15:00:11.046Z,99262.25
2023-11-26T15:02:39.132Z,99274.38
2023-11-26T15:05:09.513Z,99269.31
2023-11-26T15:07:36.550Z,99271.91
2023-11-26T15:10:04.335Z,99271.03
2023-11-26T15:12:31.701Z,99273.63
2023-11-26T15:14:58.906Z,99286.41
2023-11-26T15:17:26.043Z,99281.19
2023-11-26T15:19:53.121Z,99291.63
2023-11-26T15:22:20.259Z,99285.66
2023-11-26T15:24:49.644Z,99297.69
2023-11-26T15:27:17.191Z,99301.81
2023-11-26T15:29:45.557Z,99299.22
2023-11-26T15:32:13.477Z,99303.63
2023-11-26T15:34:41.111Z,99301.09
2023-11-26T15:37:10.725Z,99294.97
2023-11-26T15:39:37.984Z,99311.31
2023-11-26T15:42:05.532Z,99324.34
2023-11-26T15:44:32.634Z,99304.28
2023-11-26T15:46:59.764Z,99287.72
2023-11-26T15:49:27.362Z,99322.34
2023-11-26T15:51:55.150Z,99312.97
2023-11-26T15:54:22.497Z,99297.28
2023-11-26T15:56:53.333Z,99318.75
2023-11-26T15:59:24.153Z,99323.94
2023-11-26T16:01:52.704Z,99335.09
2023-11-26T16:04:20.237Z,99331.72
2023-11-26T16:06:47.769Z,99336.81
2023-11-26T16:09:15.353Z,99353.38
2023-11-26T16:11:43.913Z,99365.47
2023-11-26T16:14:11.120Z,99382.75
2023-11-26T16:16:39.530Z,99354.94
2023-11-26T16:19:06.677Z,99383.38
2023-11-26T16:21:34.912Z,99370.41
2023-11-26T16:24:03.601Z,99388.50
2023-11-26T16:26:31.528Z,99385.09
2023-11-26T16:28:58.634Z,99400.69
2023-11-26T16:31:25.861Z,99399.66
2023-11-26T16:33:54.043Z,99392.72
2023-11-26T16:36:23.575Z,99412.47
2023-11-26T16:38:50.997Z,99408.22
2023-11-26T16:41:19.475Z,99414.19
2023-11-26T16:43:49.031Z,99432.22
2023-11-26T16:46:18.871Z,99426.25
2023-11-26T16:48:47.073Z,99450.47
2023-11-26T16:51:15.067Z,99446.91
2023-11-26T16:53:42.793Z,99467.56
2023-11-26T16:56:11.624Z,99479.69
2023-11-26T16:58:40.433Z,99473.56
2023-11-26T17:01:09.909Z,99491.88
2023-11-26T17:03:38.366Z,99485.88
2023-11-26T17:06:08.886Z,99499.44
2023-11-26T17:08:36.140Z,99493.41
2023-11-26T17:11:04.807Z,99497.81
2023-11-26T17:13:31.967Z,99497.81
2023-11-26T17:15:59.036Z,99500.22
2023-11-26T17:18:26.185Z,99489.03
2023-11-26T17:20:53.283Z,99494.91
2023-11-26T17:23:20.332Z,99487.97
2023-11-26T17:25:48.410Z,99493.16
2023-11-26T17:28:17.401Z,99502.00
2023-11-26T17:30:46.497Z,99513.91
2023-11-26T17:33:14.076Z,99517.56
2023-11-26T17:35:41.137Z,99521.53
2023-11-26T17:38:08.966Z,99543.44
2023-11-26T17:40:36.614Z,99544.47
2023-11-26T17:43:04.075Z,99553.47
2023-11-26T17:45:31.387Z,99544.94
2023-11-26T17:47:58.850Z,99549.28
2023-11-26T17:50:25.899Z,99559.09
2023-11-26T17:53:03.507Z,99567.28
2023-11-26T17:55:37.023Z,99568.38
2023-11-26T17:58:04.487Z,99578.72
2023-11-26T18:00:32.999Z,99575.13
2023-11-26T18:03:01.057Z,99596.03
2023-11-26T18:05:28.132Z,99606.25
2023-11-26T18:07:58.646Z,99615.84
2023-11-26T18:10:25.895Z,99618.97
2023-11-26T18:12:53.280Z,99626.09
2023-11-26T18:15:20.903Z,99611.44
2023-11-26T18:17:48.163Z,99625.34
2023-11-26T18:20:16.451Z,99625.06
2023-11-26T18:22:43.995Z,99631.03
2023-11-26T18:25:11.246Z,99622.41
2023-11-26T18:27:38.393Z,99628.72
2023-11-26T18:30:06.037Z,99631.22
2023-11-26T18:32:33.749Z,99637.22
2023-11-26T18:35:00.906Z,99651.75
2023-11-26T18:37:29.508Z,99644.19
2023-11-26T18:39:59.233Z,99637.94
2023-11-26T18:42:27.325Z,99647.34
2023-11-26T18:44:54.423Z,99652.34
2023-11-26T18:47:22.009Z,99649.09
2023-11-26T18:49:49.512Z,99658.44
2023-11-26T18:52:18.310Z,99655.13
2023-11-26T18:54:46.414Z,99655.06
2023-11-26T18:57:13.828Z,99661.66
2023-11-26T18:59:41.640Z,99675.72
2023-11-26T19:02:09.434Z,99680.06
2023-11-26T19:04:39.254Z,99679.38
2023-11-26T19:07:07.427Z,99685.22
2023-11-26T19:09:34.990Z,99693.84
2023-11-26T19:12:02.693Z,99688.50
2023-11-26T19:14:30.926Z,99687.59
2023-11-26T19:16:59.981Z,99688.25
2023-11-26T19:19:27.252Z,99702.88
2023-11-26T19:21:54.516Z,99702.91
2023-11-26T19:24:21.937Z,99698.56
2023-11-26T19:26:49.003Z,99708.97
2023-11-26T19:29:16.049Z,99696.81
2023-11-26T19:31:43.134Z,99709.56
2023-11-26T19:34:10.360Z,99704.44
2023-11-26T19:36:37.638Z,99698.31
2023-11-26T19:39:04.761Z,99707.69
2023-11-26T19:41:32.090Z,99716.41
2023-11-26T19:43:59.187Z,99711.09
2023-11-26T19:46:26.345Z,99708.59
2023-11-26T19:48:53.409Z,99726.84
2023-11-26T19:51:26.192Z,99727.63
2023-11-26T19:53:54.503Z,99738.97
2023-11-26T19:56:21.814Z,99719.78
2023-11-26T19:58:49.105Z,99727.53
2023-11-26T20:01:18.061Z,99731.75
2023-11-26T20:03:47.026Z,99742.97
2023-11-26T20:06:14.426Z,99755.84
2023-11-26T20:08:41.595Z,99755.44
2023-11-26T20:11:09.828Z,99752.31
2023-11-26T20:13:37.305Z,99759.44
2023-11-26T20:16:04.878Z,99755.50
2023-11-26T20:18:35.045Z,99747.59
2023-11-26T20:21:06.975Z,99749.59
2023-11-26T20:23:34.205Z,99759.44
2023-11-26T20:26:01.453Z,99762.09
2023-11-26T20:28:29.389Z,99766.41
2023-11-26T20:31:08.042Z,99760.31
2023-11-26T20:33:40.772Z,99760.56
2023-11-26T20:36:18.229Z,99776.41
2023-11-26T20:38:45.384Z,99774.84
2023-11-26T20:41:12.617Z,99782.06
2023-11-26T20:43:40.058Z,99788.94
2023-11-26T20:46:07.722Z,99790.72
2023-11-26T20:48:34.863Z,99793.50
2023-11-26T20:51:01.928Z,99802.75
2023-11-26T20:53:28.950Z,99796.34
2023-11-26T20:55:56.019Z,99796.94
2023-11-26T20:58:24.707Z,99802.31
2023-11-26T21:00:53.453Z,99805.84
2023-11-26T21:03:20.576Z,99813.25
2023-11-26T21:05:47.653Z,99817.25
2023-11-26T21:08:14.748Z,99812.97
2023-11-26T21:10:42.037Z,99817.56
2023-11-26T21:13:09.137Z,99817.72
2023-11-26T21:15:36.341Z,99821.81
2023-11-26T21:18:04.282Z,99828.06
2023-11-26T21:20:31.763Z,99833.09
2023-11-26T21:22:58.822Z,99835.06
2023-11-26T21:25:25.926Z,99836.25
2023-11-26T21:27:52.968Z,99844.75
2023-11-26T21:30:20.081Z,99848.25
2023-11-26T21:32:47.932Z,99856.09
2023-11-26T21:35:15.192Z,99867.22
2023-11-26T21:37:42.232Z,99863.75
2023-11-26T21:40:09.824Z,99859.78
2023-11-26T21:42:37.006Z,99873.00
2023-11-26T21:45:04.851Z,99879.09
2023-11-26T21:47:32.019Z,99882.78
2023-11-26T21:49:59.170Z,99878.00
2023-11-26T21:52:26.247Z,99875.75
2023-11-26T21:54:55.032Z,99884.34
2023-11-26T21:57:22.188Z,99873.69
2023-11-26T21:59:49.259Z,99884.41
2023-11-26T22:02:16.618Z,99883.09
2023-11-26T22:04:43.975Z,99889.50
2023-11-26T22:07:11.142Z,99891.59
2023-11-26T22:09:39.802Z,99896.56
2023-11-26T22:12:07.163Z,99907.59
2023-11-26T22:14:34.377Z,99904.88
2023-11-26T22:17:01.524Z,99899.09
2023-11-26T22:19:28.736Z,99901.13
2023-11-26T22:21:55.958Z,99907.41
2023-11-26T22:24:23.655Z,99900.41
2023-11-26T22:26:50.721Z,99907.28
2023-11-26T22:29:17.785Z,99905.03
2023-11-26T22:31:45.252Z,99910.38
2023-11-26T22:34:13.777Z,99910.34
2023-11-26T22:36:40.944Z,99925.66
2023-11-26T22:39:08.033Z,99933.81
2023-11-26T22:41:35.823Z,99929.16
2023-11-26T22:44:02.907Z,99935.25
2023-11-26T22:46:30.671Z,99943.50
2023-11-26T22:49:00.764Z,99942.72
2023-11-26T22:51:29.145Z,99939.50
2023-11-26T22:53:56.214Z,99953.78
2023-11-26T22:56:25.673Z,99942.47
2023-11-26T22:58:54.042Z,99947.84
2023-11-26T23:01:23.799Z,99947.84
2023-11-26T23:03:52.107Z,99929.84
2023-11-26T23:06:19.351Z,99936.00
2023-11-26T23:08:46.437Z,99944.31
2023-11-26T23:11:19.928Z,99950.41
2023-11-26T23:13:50.200Z,99942.72
2023-11-26T23:16:18.107Z,99940.25
2023-11-26T23:18:45.300Z,99948.78
2023-11-26T23:21:16.229Z,99954.69
2023-11-26T23:23:51.726Z,99956.34
2023-11-26T23:26:23.310Z,99957.03
2023-11-26T23:28:51.616Z,99960.91
2023-11-26T23:31:21.474Z,99965.06
2023-11-26T23:33:49.839Z,99972.22
2023-11-26T23:36:17.426Z,99975.63
2023-11-26T23:38:45.006Z,99983.97
2023-11-26T23:41:12.970Z,99985.72
2023-11-26T23:43:41.182Z,99986.25
2023-11-26T23:46:08.974Z,99998.44
2023-11-26T23:48:36.670Z,99998.81
2023-11-26T23:51:04.215Z,100004.97
2023-11-26T23:53:31.364Z,100009.44
2023-11-26T23:55:58.432Z,100008.91
2023-11-26T23:58:25.539Z,100016.31
